createdAt,value
2023-05-05T00:00:04.538Z,100.00
2023-05-05T00:02:32.476Z,100.00
2023-05-05T00:04:59.531Z,100.00
2023-05-05T00:07:26.700Z,100.00
2023-05-05T00:09:54.274Z,100.00
2023-05-05T00:12:21.368Z,100.00
2023-05-05T00:14:48.545Z,100.00
2023-05-05T00:17:15.757Z,100.00
2023-05-05T00:19:43.000Z,100.00
2023-05-05T00:22:10.142Z,100.00
2023-05-05T00:24:37.158Z,100.00
2023-05-05T00:27:04.280Z,100.00
2023-05-05T00:29:32.286Z,100.00
2023-05-05T00:31:59.530Z,100.00
2023-05-05T00:34:26.625Z,100.00
2023-05-05T00:36:54.128Z,100.00
2023-05-05T00:39:21.405Z,100.00
2023-05-05T00:41:48.488Z,100.00
2023-05-05T00:44:15.793Z,100.00
2023-05-05T00:46:43.573Z,100.00
2023-05-05T00:49:12.374Z,100.00
2023-05-05T00:51:39.868Z,100.00
2023-05-05T00:54:07.512Z,100.00
2023-05-05T00:56:34.659Z,100.00
2023-05-05T00:59:02.767Z,100.00
2023-05-05T01:01:29.840Z,100.00
2023-05-05T01:03:57.226Z,100.00
2023-05-05T01:07:09.196Z,100.00
2023-05-05T01:09:44.594Z,100.00
2023-05-05T01:12:30.333Z,100.00
2023-05-05T01:15:09.398Z,100.00
2023-05-05T01:18:15.430Z,100.00
2023-05-05T01:20:53.516Z,100.00
2023-05-05T01:23:33.352Z,100.00
2023-05-05T01:26:29.879Z,100.00
2023-05-05T01:29:15.041Z,100.00
2023-05-05T01:31:57.668Z,100.00
2023-05-05T01:34:28.005Z,100.00
2023-05-05T01:37:04.771Z,100.00
2023-05-05T01:39:35.070Z,100.00
2023-05-05T01:42:08.303Z,100.00
2023-05-05T01:44:37.115Z,100.00
2023-05-05T01:47:06.442Z,100.00
2023-05-05T01:49:34.666Z,100.00
2023-05-05T01:52:03.794Z,100.00
2023-05-05T01:54:33.697Z,100.00
2023-05-05T01:57:05.100Z,100.00
2023-05-05T01:59:34.148Z,100.00
2023-05-05T02:02:02.899Z,100.00
2023-05-05T02:04:33.269Z,100.00
2023-05-05T02:07:03.513Z,100.00
2023-05-05T02:09:32.619Z,100.00
2023-05-05T02:12:00.876Z,100.00
2023-05-05T02:14:29.980Z,100.00
2023-05-05T02:16:59.205Z,100.00
2023-05-05T02:19:34.630Z,100.00
2023-05-05T02:22:01.703Z,100.00
2023-05-05T02:24:29.497Z,100.00
2023-05-05T02:26:58.638Z,100.00
2023-05-05T02:29:31.736Z,100.00
2023-05-05T02:32:05.122Z,100.00
2023-05-05T02:34:36.950Z,100.00
2023-05-05T02:37:11.220Z,100.00
2023-05-05T02:39:58.532Z,100.00
2023-05-05T02:42:36.930Z,100.00
2023-05-05T02:45:15.512Z,100.00
2023-05-05T02:47:46.017Z,100.00
2023-05-05T02:50:13.481Z,100.00
2023-05-05T02:52:47.213Z,100.00
2023-05-05T02:55:15.751Z,100.00
2023-05-05T02:58:06.764Z,100.00
2023-05-05T03:00:50.676Z,100.00
2023-05-05T03:03:44.862Z,100.00
2023-05-05T03:06:21.186Z,100.00
2023-05-05T03:08:59.077Z,100.00
2023-05-05T03:11:44.084Z,100.00
2023-05-05T03:14:12.381Z,100.00
2023-05-05T03:16:43.657Z,100.00
2023-05-05T03:19:13.641Z,100.00
2023-05-05T03:21:42.458Z,100.00
2023-05-05T03:24:18.380Z,100.00
2023-05-05T03:26:53.480Z,100.00
2023-05-05T03:29:23.283Z,100.00
2023-05-05T03:31:50.544Z,100.00
2023-05-05T03:34:18.333Z,100.00
2023-05-05T03:36:47.860Z,100.00
2023-05-05T03:39:16.599Z,100.00
2023-05-05T03:41:43.693Z,100.00
2023-05-05T03:44:12.229Z,100.00
2023-05-05T03:46:39.348Z,100.00
2023-05-05T03:49:09.956Z,100.00
2023-05-05T03:51:38.957Z,100.00
2023-05-05T03:54:06.360Z,100.00
2023-05-05T03:56:33.495Z,100.00
2023-05-05T03:59:00.586Z,100.00
2023-05-05T04:01:30.054Z,100.00
2023-05-05T04:03:57.776Z,100.00
2023-05-05T04:06:25.798Z,100.00
2023-05-05T04:08:52.897Z,100.00
2023-05-05T04:11:21.403Z,100.00
2023-05-05T04:13:50.103Z,100.00
2023-05-05T04:16:18.767Z,100.00
2023-05-05T04:18:46.380Z,100.00
2023-05-05T04:21:13.532Z,100.00
2023-05-05T04:23:41.078Z,100.00
2023-05-05T04:26:08.231Z,100.00
2023-05-05T04:28:35.986Z,100.00
2023-05-05T04:31:05.280Z,100.00
2023-05-05T04:33:35.991Z,100.00
2023-05-05T04:36:03.581Z,100.00
2023-05-05T04:38:31.057Z,100.00
2023-05-05T04:41:00.054Z,100.00
2023-05-05T04:43:27.986Z,100.00
2023-05-05T04:45:55.877Z,100.00
2023-05-05T04:48:26.903Z,100.00
2023-05-05T04:50:54.061Z,100.00
2023-05-05T04:53:21.235Z,100.00
2023-05-05T04:55:48.461Z,100.00
2023-05-05T04:58:15.885Z,100.00
2023-05-05T05:00:44.064Z,100.00
2023-05-05T05:03:11.684Z,100.00
2023-05-05T05:05:38.760Z,100.00
2023-05-05T05:08:06.348Z,100.00
2023-05-05T05:10:33.407Z,100.00
2023-05-05T05:13:00.488Z,100.00
2023-05-05T05:15:27.650Z,100.00
2023-05-05T05:17:54.961Z,100.00
2023-05-05T05:20:22.239Z,100.00
2023-05-05T05:22:50.052Z,100.00
2023-05-05T05:25:19.546Z,100.00
2023-05-05T05:27:55.300Z,100.00
2023-05-05T05:30:34.035Z,100.00
2023-05-05T05:33:03.503Z,100.00
2023-05-05T05:35:31.567Z,100.00
2023-05-05T05:38:01.607Z,100.00
2023-05-05T05:40:28.766Z,100.00
2023-05-05T05:42:56.305Z,100.00
2023-05-05T05:45:25.076Z,100.00
2023-05-05T05:47:52.792Z,100.00
2023-05-05T05:50:20.935Z,100.00
2023-05-05T05:52:47.983Z,100.00
2023-05-05T05:55:15.706Z,100.00
2023-05-05T05:57:43.281Z,100.00
2023-05-05T06:00:11.975Z,100.00
2023-05-05T06:02:39.542Z,100.00
2023-05-05T06:05:11.118Z,100.00
2023-05-05T06:07:38.588Z,100.00
2023-05-05T06:10:22.724Z,100.00
2023-05-05T06:12:55.818Z,100.00
2023-05-05T06:15:22.926Z,100.00
2023-05-05T06:17:50.515Z,100.00
2023-05-05T06:20:17.897Z,100.00
2023-05-05T06:22:44.984Z,100.00
2023-05-05T06:25:12.334Z,100.00
2023-05-05T06:27:39.393Z,100.00
2023-05-05T06:30:07.920Z,100.00
2023-05-05T06:32:35.169Z,100.00
2023-05-05T06:35:02.463Z,99.33
2023-05-05T06:37:29.903Z,98.45
2023-05-05T06:39:57.074Z,96.91
2023-05-05T06:42:24.188Z,96.87
2023-05-05T06:44:53.108Z,97.63
2023-05-05T06:47:20.389Z,97.45
2023-05-05T06:49:47.461Z,95.19
2023-05-05T06:52:14.509Z,94.31
2023-05-05T06:54:41.606Z,96.27
2023-05-05T06:57:08.658Z,95.57
2023-05-05T06:59:36.581Z,95.35
2023-05-05T07:02:03.615Z,93.54
2023-05-05T07:04:30.641Z,93.12
2023-05-05T07:06:58.502Z,92.03
2023-05-05T07:09:25.746Z,91.33
2023-05-05T07:11:52.784Z,89.82
2023-05-05T07:14:20.986Z,87.02
2023-05-05T07:16:49.863Z,84.46
2023-05-05T07:19:17.688Z,85.68
2023-05-05T07:24:30.627Z,84.88
2023-05-05T07:26:57.911Z,84.93
2023-05-05T07:29:24.968Z,86.08
2023-05-05T07:31:52.039Z,83.14
2023-05-05T07:34:19.207Z,73.60
2023-05-05T07:36:46.318Z,72.82
2023-05-05T07:39:27.153Z,74.55
2023-05-05T07:41:54.277Z,73.58
2023-05-05T07:44:21.466Z,73.44
2023-05-05T07:46:48.530Z,73.42
2023-05-05T07:49:15.778Z,73.68
2023-05-05T07:51:42.926Z,71.68
2023-05-05T07:54:09.875Z,72.45
2023-05-05T07:56:36.958Z,73.32
2023-05-05T07:59:04.086Z,71.54
2023-05-05T08:01:31.312Z,70.19
2023-05-05T08:03:58.932Z,69.85
2023-05-05T08:06:27.882Z,68.74
2023-05-05T08:08:55.925Z,69.26
2023-05-05T08:11:23.061Z,66.45
2023-05-05T08:13:50.089Z,66.53
2023-05-05T08:16:17.226Z,67.85
2023-05-05T08:18:44.519Z,64.85
2023-05-05T08:21:12.237Z,64.04
2023-05-05T08:23:39.983Z,64.42
2023-05-05T08:26:07.597Z,63.12
2023-05-05T08:28:36.578Z,63.42
2023-05-05T08:31:07.148Z,62.99
2023-05-05T08:33:34.381Z,65.01
2023-05-05T08:36:01.555Z,63.97
2023-05-05T08:38:28.625Z,63.72
2023-05-05T08:40:56.176Z,63.28
2023-05-05T08:43:24.080Z,61.95
2023-05-05T08:45:51.894Z,61.52
2023-05-05T08:48:22.836Z,62.11
2023-05-05T08:50:59.974Z,60.19
2023-05-05T08:53:55.978Z,60.81
2023-05-05T08:56:27.453Z,61.51
2023-05-05T08:58:56.550Z,60.96
2023-05-05T09:01:24.011Z,61.17
2023-05-05T09:03:52.699Z,59.86
2023-05-05T09:06:24.257Z,59.38
2023-05-05T09:08:51.559Z,58.17
2023-05-05T09:11:18.664Z,59.12
2023-05-05T09:13:47.650Z,58.78
2023-05-05T09:16:14.800Z,60.39
2023-05-05T09:18:42.890Z,60.00
2023-05-05T09:21:24.771Z,59.43
2023-05-05T09:24:09.081Z,58.54
2023-05-05T09:26:39.193Z,57.23
2023-05-05T09:29:06.849Z,58.52
2023-05-05T09:31:35.511Z,58.01
2023-05-05T09:34:14.889Z,57.54
2023-05-05T09:36:49.034Z,55.44
2023-05-05T09:39:20.436Z,54.90
2023-05-05T09:41:47.560Z,54.55
2023-05-05T09:44:17.781Z,53.70
2023-05-05T09:46:51.597Z,53.81
2023-05-05T09:49:23.181Z,53.47
2023-05-05T09:51:50.322Z,51.53
2023-05-05T09:54:28.587Z,52.60
2023-05-05T09:56:57.068Z,51.71
2023-05-05T09:59:24.830Z,50.36
2023-05-05T10:01:52.414Z,51.55
2023-05-05T10:04:30.673Z,51.62
2023-05-05T10:06:59.101Z,51.03
2023-05-05T10:09:27.261Z,51.51
2023-05-05T10:11:57.412Z,50.49
2023-05-05T10:14:25.292Z,50.88
2023-05-05T10:16:55.015Z,52.31
2023-05-05T10:19:24.286Z,49.93
2023-05-05T10:21:53.238Z,50.74
2023-05-05T10:24:38.745Z,50.75
2023-05-05T10:27:15.824Z,49.26
2023-05-05T10:30:03.138Z,49.19
2023-05-05T10:33:03.376Z,48.95
2023-05-05T10:35:40.959Z,48.89
2023-05-05T10:38:13.336Z,49.06
2023-05-05T10:40:45.652Z,48.16
2023-05-05T10:43:15.961Z,48.01
2023-05-05T10:45:44.185Z,48.29
2023-05-05T10:48:22.989Z,47.97
2023-05-05T10:50:56.970Z,46.53
2023-05-05T10:53:28.764Z,46.96
2023-05-05T10:56:26.806Z,47.64
2023-05-05T10:59:00.045Z,46.67
2023-05-05T11:01:36.321Z,47.06
2023-05-05T11:04:23.525Z,46.19
2023-05-05T11:07:12.453Z,45.45
2023-05-05T11:10:21.215Z,45.77
2023-05-05T11:12:54.370Z,45.19
2023-05-05T11:15:24.225Z,45.20
2023-05-05T11:17:51.426Z,44.96
2023-05-05T11:20:43.457Z,43.45
2023-05-05T11:23:10.500Z,44.69
2023-05-05T11:25:39.217Z,44.62
2023-05-05T11:28:16.945Z,43.30
2023-05-05T11:30:59.711Z,42.90
2023-05-05T11:33:36.168Z,42.98
2023-05-05T11:36:11.727Z,42.03
2023-05-05T11:38:56.788Z,42.58
2023-05-05T11:41:33.668Z,42.86
2023-05-05T11:44:13.821Z,42.50
2023-05-05T11:47:01.769Z,42.75
2023-05-05T11:49:33.530Z,42.54
2023-05-05T11:52:14.729Z,42.12
2023-05-05T11:54:50.550Z,42.34
2023-05-05T11:57:23.462Z,42.16
2023-05-05T11:59:55.100Z,42.39
2023-05-05T12:02:23.375Z,42.42
2023-05-05T12:04:51.542Z,42.04
2023-05-05T12:07:24.914Z,42.37
2023-05-05T12:09:52.855Z,42.05
2023-05-05T12:12:20.539Z,42.41
2023-05-05T12:14:52.864Z,40.89
2023-05-05T12:17:21.137Z,40.70
2023-05-05T12:19:55.826Z,40.30
2023-05-05T12:22:27.016Z,40.82
2023-05-05T12:24:59.058Z,41.46
2023-05-05T12:27:28.154Z,42.16
2023-05-05T12:29:57.663Z,42.15
2023-05-05T12:32:28.357Z,42.86
2023-05-05T12:34:57.640Z,43.23
2023-05-05T12:37:27.216Z,43.35
2023-05-05T12:39:55.189Z,42.15
2023-05-05T12:42:22.793Z,41.91
2023-05-05T12:44:50.069Z,43.27
2023-05-05T12:47:33.061Z,42.30
2023-05-05T12:50:03.026Z,42.06
2023-05-05T12:52:44.383Z,42.81
2023-05-05T12:55:11.876Z,41.91
2023-05-05T12:57:39.750Z,43.06
2023-05-05T13:00:15.077Z,44.21
2023-05-05T13:02:42.339Z,40.53
2023-05-05T13:05:10.230Z,41.06
2023-05-05T13:07:50.880Z,41.21
2023-05-05T13:10:18.811Z,40.09
2023-05-05T13:12:46.067Z,39.63
2023-05-05T13:15:13.394Z,40.89
2023-05-05T13:17:40.504Z,41.29
2023-05-05T13:20:09.798Z,42.27
2023-05-05T13:22:37.146Z,43.55
2023-05-05T13:25:04.531Z,41.46
2023-05-05T13:27:31.656Z,41.15
2023-05-05T13:29:58.668Z,40.57
2023-05-05T13:32:25.867Z,41.22
2023-05-05T13:34:53.115Z,40.64
2023-05-05T13:37:20.277Z,41.86
2023-05-05T13:39:47.345Z,40.35
2023-05-05T13:42:14.400Z,40.48
2023-05-05T13:44:41.489Z,40.17
2023-05-05T13:47:08.874Z,40.14
2023-05-05T13:49:36.102Z,40.06
2023-05-05T13:52:03.272Z,39.50
2023-05-05T13:54:30.295Z,38.99
2023-05-05T13:56:58.102Z,38.91
2023-05-05T13:59:25.961Z,38.80
2023-05-05T14:01:53.218Z,38.69
2023-05-05T14:04:20.384Z,39.00
2023-05-05T14:06:47.625Z,39.06
2023-05-05T14:09:14.767Z,38.27
2023-05-05T14:11:41.965Z,38.26
2023-05-05T14:14:09.071Z,38.69
2023-05-05T14:16:36.246Z,38.95
2023-05-05T14:19:03.504Z,38.21
2023-05-05T14:21:32.655Z,38.21
2023-05-05T14:23:59.973Z,38.66
2023-05-05T14:26:27.364Z,38.22
2023-05-05T14:28:54.607Z,38.02
2023-05-05T14:31:21.716Z,38.25
2023-05-05T14:33:49.007Z,38.73
2023-05-05T14:36:16.122Z,37.92
2023-05-05T14:38:43.417Z,38.19
2023-05-05T14:41:10.624Z,38.51
2023-05-05T14:43:37.733Z,38.49
2023-05-05T14:46:07.162Z,38.63
2023-05-05T14:48:34.749Z,38.80
2023-05-05T14:51:02.248Z,38.50
2023-05-05T14:53:29.340Z,38.44
2023-05-05T14:55:56.430Z,37.96
2023-05-05T14:58:24.764Z,38.37
2023-05-05T15:00:52.987Z,38.31
2023-05-05T15:03:20.599Z,37.94
2023-05-05T15:05:47.778Z,38.71
2023-05-05T15:08:14.846Z,38.37
2023-05-05T15:10:41.989Z,37.87
2023-05-05T15:13:09.300Z,37.55
2023-05-05T15:15:36.597Z,38.34
2023-05-05T15:18:03.830Z,37.99
2023-05-05T15:20:31.332Z,38.33
2023-05-05T15:22:58.404Z,38.17
2023-05-05T15:25:25.479Z,38.22
2023-05-05T15:27:52.683Z,38.34
2023-05-05T15:30:19.745Z,38.96
2023-05-05T15:32:46.894Z,38.62
2023-05-05T15:35:13.988Z,39.01
2023-05-05T15:37:42.692Z,39.10
2023-05-05T15:40:10.217Z,39.05
2023-05-05T15:42:37.743Z,39.15
2023-05-05T15:45:05.798Z,39.20
2023-05-05T15:47:32.918Z,38.99
2023-05-05T15:49:59.936Z,39.38
2023-05-05T15:52:26.959Z,39.33
2023-05-05T15:54:53.958Z,39.46
2023-05-05T15:57:21.549Z,40.04
2023-05-05T15:59:54.711Z,39.59
2023-05-05T16:02:22.257Z,40.55
2023-05-05T16:04:49.266Z,40.43
2023-05-05T16:07:17.185Z,40.37
2023-05-05T16:09:44.598Z,40.12
2023-05-05T16:12:11.547Z,40.55
2023-05-05T16:14:38.673Z,40.88
2023-05-05T16:17:05.872Z,40.89
2023-05-05T16:19:33.038Z,40.80
2023-05-05T16:22:00.128Z,40.65
2023-05-05T16:24:27.227Z,41.12
2023-05-05T16:26:54.314Z,41.21
2023-05-05T16:29:21.427Z,41.37
2023-05-05T16:31:48.644Z,41.26
2023-05-05T16:34:16.572Z,41.58
2023-05-05T16:36:44.385Z,41.54
2023-05-05T16:39:12.000Z,41.55
2023-05-05T16:41:39.470Z,41.84
2023-05-05T16:44:07.108Z,42.03
2023-05-05T16:46:37.596Z,41.93
2023-05-05T16:49:04.856Z,42.32
2023-05-05T16:51:31.935Z,42.46
2023-05-05T16:53:59.018Z,42.94
2023-05-05T16:56:26.312Z,42.77
2023-05-05T16:58:53.583Z,42.91
2023-05-05T17:01:20.824Z,42.85
2023-05-05T17:03:48.051Z,43.10
2023-05-05T17:06:15.153Z,43.18
2023-05-05T17:08:42.341Z,43.09
2023-05-05T17:11:11.696Z,43.21
2023-05-05T17:13:39.012Z,43.42
2023-05-05T17:16:06.549Z,43.62
2023-05-05T17:18:33.701Z,44.14
2023-05-05T17:21:00.802Z,44.29
2023-05-05T17:23:27.821Z,44.52
2023-05-05T17:25:54.912Z,44.64
2023-05-05T17:28:22.556Z,44.79
2023-05-05T17:30:49.648Z,45.00
2023-05-05T17:33:21.579Z,45.06
2023-05-05T17:35:48.811Z,45.28
2023-05-05T17:38:16.033Z,45.41
2023-05-05T17:40:43.176Z,45.78
2023-05-05T17:43:10.306Z,46.35
2023-05-05T17:45:37.434Z,46.56
2023-05-05T17:48:05.119Z,46.54
2023-05-05T17:50:32.418Z,46.71
2023-05-05T17:52:59.541Z,47.12
2023-05-05T17:55:26.570Z,47.23
2023-05-05T17:57:55.919Z,47.97
2023-05-05T18:00:23.332Z,48.80
2023-05-05T18:02:50.532Z,49.43
2023-05-05T18:05:18.201Z,51.53
2023-05-05T18:07:45.653Z,53.11
2023-05-05T18:10:12.980Z,53.96
2023-05-05T18:12:39.988Z,54.90
2023-05-05T18:15:07.814Z,55.53
2023-05-05T18:17:35.106Z,56.56
2023-05-05T18:20:02.619Z,57.80
2023-05-05T18:22:29.703Z,59.74
2023-05-05T18:24:59.164Z,61.41
2023-05-05T18:27:27.532Z,61.85
2023-05-05T18:29:54.957Z,62.26
2023-05-05T18:32:22.118Z,63.11
2023-05-05T18:34:49.430Z,63.71
2023-05-05T18:37:16.505Z,64.23
2023-05-05T18:39:44.224Z,65.19
2023-05-05T18:42:13.064Z,65.92
2023-05-05T18:44:40.135Z,66.61
2023-05-05T18:47:07.963Z,67.50
2023-05-05T18:49:35.317Z,67.81
2023-05-05T18:52:02.442Z,68.98
2023-05-05T18:54:29.726Z,69.81
2023-05-05T18:56:56.884Z,70.48
2023-05-05T18:59:24.265Z,71.02
2023-05-05T19:01:51.421Z,71.84
2023-05-05T19:04:30.220Z,71.84
2023-05-05T19:06:58.570Z,71.88
2023-05-05T19:09:25.746Z,72.75
2023-05-05T19:11:52.830Z,73.28
2023-05-05T19:14:19.883Z,74.30
2023-05-05T19:16:47.224Z,74.51
2023-05-05T19:19:14.676Z,74.40
2023-05-05T19:21:41.911Z,75.48
2023-05-05T19:24:09.810Z,75.61
2023-05-05T19:26:37.167Z,76.08
2023-05-05T19:29:04.332Z,75.65
2023-05-05T19:31:31.862Z,75.16
2023-05-05T19:34:01.354Z,74.91
2023-05-05T19:36:29.049Z,75.27
2023-05-05T19:38:56.156Z,75.44
2023-05-05T19:41:23.384Z,75.75
2023-05-05T19:43:50.388Z,75.66
2023-05-05T19:46:19.598Z,75.72
2023-05-05T19:48:46.704Z,75.57
2023-05-05T19:51:13.797Z,75.43
2023-05-05T19:53:42.875Z,75.42
2023-05-05T19:56:10.412Z,76.81
2023-05-05T19:59:00.719Z,75.97
2023-05-05T20:01:29.266Z,75.71
2023-05-05T20:03:57.127Z,75.88
2023-05-05T20:06:24.615Z,75.88
2023-05-05T20:08:52.471Z,75.78
2023-05-05T20:11:21.271Z,75.41
2023-05-05T20:13:50.047Z,76.65
2023-05-05T20:16:17.887Z,76.39
2023-05-05T20:18:44.972Z,76.50
2023-05-05T20:21:12.206Z,76.57
2023-05-05T20:23:39.595Z,77.33
2023-05-05T20:26:06.711Z,78.64
2023-05-05T20:28:33.799Z,79.50
2023-05-05T20:31:01.217Z,80.04
2023-05-05T20:33:29.209Z,81.17
2023-05-05T20:35:56.407Z,80.94
2023-05-05T20:38:23.897Z,79.52
2023-05-05T20:40:52.317Z,77.53
2023-05-05T20:43:19.770Z,77.27
2023-05-05T20:45:46.819Z,77.83
2023-05-05T20:48:13.911Z,79.27
2023-05-05T20:50:41.857Z,80.03
2023-05-05T20:53:10.001Z,78.98
2023-05-05T20:55:37.308Z,78.18
2023-05-05T20:58:05.174Z,77.62
2023-05-05T21:00:32.370Z,77.58
2023-05-05T21:02:59.767Z,77.28
2023-05-05T21:05:26.892Z,77.66
2023-05-05T21:07:54.708Z,77.22
2023-05-05T21:10:21.998Z,76.82
2023-05-05T21:12:49.175Z,77.19
2023-05-05T21:15:16.719Z,77.72
2023-05-05T21:17:44.008Z,77.70
2023-05-05T21:20:11.876Z,78.08
2023-05-05T21:22:39.360Z,82.72
2023-05-05T21:25:24.838Z,83.90
2023-05-05T21:27:51.847Z,83.92
2023-05-05T21:30:18.929Z,83.72
2023-05-05T21:32:46.202Z,83.20
2023-05-05T21:35:13.426Z,82.88
2023-05-05T21:37:40.948Z,82.99
2023-05-05T21:40:13.744Z,82.19
2023-05-05T21:42:42.003Z,82.16
2023-05-05T21:45:10.708Z,81.25
2023-05-05T21:47:37.838Z,80.98
2023-05-05T21:50:05.648Z,80.65
2023-05-05T21:52:32.782Z,81.30
2023-05-05T21:54:59.830Z,80.97
2023-05-05T21:57:26.989Z,81.61
2023-05-05T21:59:54.013Z,80.89
2023-05-05T22:02:21.139Z,81.25
2023-05-05T22:04:51.303Z,81.25
2023-05-05T22:07:18.316Z,81.31
2023-05-05T22:09:46.048Z,81.43
2023-05-05T22:12:13.322Z,81.74
2023-05-05T22:14:40.465Z,88.77
2023-05-05T22:17:07.633Z,89.88
2023-05-05T22:19:34.631Z,89.72
2023-05-05T22:22:02.797Z,90.31
2023-05-05T22:24:30.108Z,90.63
2023-05-05T22:26:57.597Z,89.48
2023-05-05T22:29:25.390Z,88.35
2023-05-05T22:31:52.798Z,87.93
2023-05-05T22:34:22.048Z,89.71
2023-05-05T22:36:49.877Z,90.39
2023-05-05T22:39:18.770Z,90.06
2023-05-05T22:41:46.436Z,90.38
2023-05-05T22:44:13.611Z,90.29
2023-05-05T22:46:40.975Z,90.66
2023-05-05T22:49:08.810Z,93.29
2023-05-05T22:51:35.948Z,93.91
2023-05-05T22:54:03.134Z,94.72
2023-05-05T22:56:30.473Z,96.38
2023-05-05T22:58:57.571Z,94.85
2023-05-05T23:01:24.748Z,95.98
2023-05-05T23:03:51.949Z,96.06
2023-05-05T23:06:19.022Z,94.97
2023-05-05T23:08:46.408Z,94.26
2023-05-05T23:11:13.565Z,94.13
2023-05-05T23:13:40.882Z,93.67
2023-05-05T23:16:08.495Z,92.95
2023-05-05T23:18:36.485Z,91.83
2023-05-05T23:21:03.609Z,92.09
2023-05-05T23:23:31.240Z,91.66
2023-05-05T23:25:58.395Z,92.27
2023-05-05T23:28:25.483Z,92.55
2023-05-05T23:30:52.711Z,93.86
2023-05-05T23:33:19.926Z,93.54
2023-05-05T23:35:47.097Z,95.61
2023-05-05T23:38:14.153Z,95.63
2023-05-05T23:40:41.343Z,95.00
2023-05-05T23:43:08.344Z,93.68
2023-05-05T23:45:35.516Z,93.59
2023-05-05T23:48:02.589Z,93.88
2023-05-05T23:50:30.442Z,95.76
2023-05-05T23:52:57.581Z,95.98
2023-05-05T23:55:24.790Z,95.59
2023-05-05T23:57:53.198Z,94.42
